• Join FlightAware (Why Join?)
  • Login
  • US Flag 
02:02AM EDT


 

Airport Tracker/Info


-or-


 

Live Flight TrackerFlight Track Log ✈ SWA864 ✈ 18-May-2013 ✈ KSAT - KMCO

Flight Track Log - Related Links

Times and Time Zones

All times are in EDT time to prevent confusion due to time zone crossing. See the SWA864 flight status page for this flight to view local times or setup timezone preferences in your user account.

Time Position Orientation Groundspeed Altitude Reporting Facility
EDT Latitude Longitude Course Direction KTS MPH feet Rate Location/Type
04:15PM 29.4972 -98.4167 124° Southeast 206 237 3,300  Level Houston Center
04:16PM 29.5017 -98.3872 80° East 225 259 4,200 2,220 Climbing Houston Center
04:16PM 29.5094 -98.3647 68° East 263 303 4,900 3,000 Climbing Houston Center
04:17PM 29.5261 -98.3028 73° East 260 299 7,300 3,000 Climbing Houston Center
04:18PM 29.5503 -98.2131 73° East 293 337 10,100 2,400 Climbing Houston Center
04:19PM 29.5789 -98.1000 74° East 347 399 12,300 2,580 Climbing Houston Center
04:20PM 29.5761 -97.9836 92° East 365 420 15,500 2,880 Climbing Houston Center
04:21PM 29.5706 -97.8653 93° East 370 426 18,300 2,280 Climbing Houston Center
04:22PM 29.5656 -97.7447 93° East 408 470 20,200 2,100 Climbing Houston Center
04:23PM 29.5594 -97.6100 93° East 423 487 22,700 2,400 Climbing Houston Center
04:24PM 29.5528 -97.4439 93° East 434 499 25,200 2,040 Climbing Houston Center
04:25PM 29.5469 -97.2989 93° East 450 518 26,900 1,620 Climbing Houston Center
04:26PM 29.5394 -97.1469 93° East 470 541 28,600 1,620 Climbing Houston Center
04:27PM 29.5331 -96.9908 93° East 481 554 30,300 1,500 Climbing Houston Center
04:28PM 29.5258 -96.8297 93° East 492 566 31,800 1,560 Climbing Houston Center
04:29PM 29.5167 -96.6689 94° East 495 570 33,500 1,500 Climbing Houston Center
04:30PM 29.5086 -96.5078 93° East 501 577 34,900 1,500 Climbing Houston Center
04:31PM 29.4997 -96.3492 94° East 497 572 36,600 1,020 Climbing Houston Center
04:32PM 29.4919 -96.1928 93° East 492 566 37,000 180 Climbing Houston Center
04:33PM 29.4828 -96.0375 94° East 490 564 37,000  Level Houston Center
04:34PM 29.4733 -95.8586 93° East 488 562 37,000  Level Houston Center
04:35PM 29.4644 -95.7036 94° East 489 563 37,000  Level Houston Center
04:36PM 29.4558 -95.5489 94° East 489 563 37,000  Level Houston Center
04:37PM 29.4461 -95.3944 94° East 490 564 37,000  Level Houston Center
04:38PM 29.4344 -95.2089 94° East 495 570 37,000  Level Houston Center
04:39PM 29.4247 -95.0542 94° East 498 573 37,000  Level Houston Center
04:40PM 29.4156 -94.9006 94° East 491 565 37,000  Level Houston Center
04:41PM 29.4069 -94.7442 94° East 492 566 37,000  Level Houston Center
04:42PM 29.3967 -94.5875 94° East 495 570 37,000 240 Level Houston Center
04:43PM 29.3844 -94.3986 94° East 496 571 37,600 780 Climbing Houston Center
04:44PM 29.3742 -94.2408 94° East 498 573 38,700 660 Climbing Houston Center
04:45PM 29.3633 -94.0850 95° East 495 570 39,000 120 Climbing Houston Center
04:46PM 29.3533 -93.9294 94° East 492 566 39,000  Level Houston Center
04:48PM 29.3403 -93.7550 95° East 489 563 39,000  Level Houston Center
04:49PM 29.3297 -93.6006 94° East 488 562 39,000  Level Houston Center
04:50PM 29.3169 -93.4464 95° East 489 563 39,000  Level Houston Center
04:51PM 29.3056 -93.2950 95° East 481 554 39,000  Level Houston Center
04:52PM 29.2944 -93.1431 95° East 481 554 39,000  Level Houston Center
04:53PM 29.2808 -92.9625 95° East 479 551 39,000  Level Houston Center
04:54PM 29.2692 -92.8119 95° East 478 550 39,000  Level Houston Center
04:55PM 29.2575 -92.6603 95° East 479 551 39,000  Level Houston Center
04:56PM 29.2453 -92.5086 95° East 481 554 39,000  Level Houston Center
04:57PM 29.2333 -92.3572 95° East 480 552 39,000  Level Houston Center
04:58PM 29.2211 -92.2078 95° East 476 548 39,000  Level Houston Center
04:59PM 29.2050 -92.0278 96° East 476 548 39,000  Level Houston Center
05:00PM 29.1933 -91.8764 95° East 477 549 39,000  Level Houston Center
05:01PM 29.1806 -91.7258 96° East 477 549 39,000  Level Houston Center
05:02PM 29.1667 -91.5811 96° East 479 551 39,000  Level Houston Center
05:03PM 29.1544 -91.4303 95° East 478 550 39,000  Level Houston Center
05:04PM 29.1383 -91.2486 96° East 479 551 39,000  Level Houston Center
05:05PM 29.1247 -91.0967 96° East 481 554 39,000  Level Houston Center
05:06PM 29.1100 -90.9433 96° East 484 557 39,000  Level Houston Center
05:07PM 29.0961 -90.7911 96° East 484 557 39,000  Level Houston Center
05:08PM 29.0811 -90.6381 96° East 486 559 39,000  Level Houston Center
05:09PM 29.0575 -90.4878 100° East 483 556 39,000  Level Houston Center
05:10PM 29.0253 -90.3078 102° East 485 558 39,000  Level Houston Center
05:11PM 28.9983 -90.1583 102° East 484 557 39,000  Level Houston Center
05:12PM 28.9708 -90.0089 102° East 483 556 39,000  Level Houston Center
05:13PM 28.9453 -89.8608 101° East 479 551 39,000  Level Houston Center
05:14PM 28.9178 -89.7136 102° East 478 550 39,000  Level Houston Center
05:15PM 28.8861 -89.5361 101° East 479 551 39,000  Level Houston Center
05:16PM 28.8600 -89.3919 102° East 471 542 39,000  Level Houston Center
05:17PM 28.8331 -89.2450 102° East 473 544 39,000  Level Houston Center
05:18PM 28.8056 -89.0983 102° East 474 545 39,000  Level Houston Center
05:19PM 28.7786 -88.9511 102° East 476 548 39,000  Level Houston Center
05:21PM 28.7511 -88.8033 102° East 479 551 39,000  Level Houston Center
05:22PM 28.7219 -88.6578 103° East 475 547 39,000  Level Houston Center
05:23PM 28.6894 -88.4794 102° East 478 550 39,000  Level Houston Center
05:24PM 28.6614 -88.3331 102° East 476 548 39,000  Level Houston Center
05:25PM 28.6331 -88.1881 103° East 473 544 39,000  Level Houston Center
05:26PM 28.6033 -88.0514 104° East 477 549 39,000  Level Jacksonville Center
05:27PM 28.5739 -87.9033 103° East 471 542 39,000  Level Jacksonville Center
05:28PM 28.5558 -87.7725 99° East 459 528 39,000  Level Jacksonville Center
05:29PM 28.5219 -87.6244 105° East 454 522 39,000  Level Jacksonville Center
05:30PM 28.4919 -87.4742 103° East 468 539 39,000  Level Jacksonville Center
05:31PM 28.4636 -87.3289 102° East 468 539 39,000  Level Jacksonville Center
05:32PM 28.4331 -87.1814 103° East 475 547 39,000  Level Jacksonville Center
05:33PM 28.4008 -87.0172 103° East 485 558 39,000  Level Jacksonville Center
05:34PM 28.3683 -86.8603 103° East 485 558 39,000  Level Jacksonville Center
05:35PM 28.3394 -86.7153 103° East 485 558 39,000  Level Jacksonville Center
05:36PM 28.3064 -86.5608 104° East 485 558 39,000  Level Jacksonville Center
05:37PM 28.2769 -86.4158 103° East 487 560 39,000  Level Jacksonville Center
05:38PM 28.2456 -86.2617 103° East 487 560 39,000  Level Jacksonville Center
05:39PM 28.2119 -86.1147 105° East 487 560 39,000  Level Jacksonville Center
05:40PM 28.1800 -85.9606 103° East 487 560 39,000  Level Jacksonville Center
05:41PM 28.1461 -85.8089 104° East 487 560 39,000  Level Jacksonville Center
05:42PM 28.1161 -85.6575 103° East 482 555 39,000  Level Jacksonville Center
05:44PM 28.0519 -85.2706 101° East 490 564 39,000  Level Miami Center
05:45PM 28.0400 -85.1169 95° East 490 564 39,000 -300 Level Miami Center
05:46PM 28.0297 -84.9683 94° East 483 556 38,500 -780 Descending Miami Center
05:47PM 28.0194 -84.8197 94° East 483 556 37,500 -960 Descending Miami Center
05:48PM 28.0069 -84.6661 95° East 483 556 36,600 -960 Descending Miami Center
05:49PM 27.9942 -84.5150 95° East 483 556 35,600 -1,020 Descending Miami Center
05:50PM 27.9758 -84.3517 97° East 483 556 34,600 -1,020 Descending Miami Center
05:51PM 27.9650 -84.1983 95° East 483 556 33,600 -960 Descending Miami Center
05:52PM 27.9561 -84.0453 94° East 483 556 32,700 -960 Descending Miami Center
05:53PM 27.9425 -83.8964 96° East 483 556 31,700 -1,320 Descending Miami Center
05:54PM 27.9308 -83.7503 95° East 483 556 30,100 -1,920 Descending Miami Center
05:55PM 27.9169 -83.6061 96° East 469 540 27,900 -2,220 Descending Miami Center
05:56PM 27.9044 -83.4669 96° East 456 525 25,700 -2,160 Descending Miami Center
05:57PM 27.8961 -83.3303 94° East 443 510 23,600 -1,380 Descending Miami Center
05:58PM 27.8831 -83.2006 96° East 436 502 23,000 -300 Descending Miami Center
05:59PM 27.8742 -83.0756 95° East 418 481 23,000  Level Miami Center
06:00PM 27.8628 -82.9483 96° East 405 466 23,000  Level Miami Center
06:01PM 27.8531 -82.8328 95° East 410 472 23,000  Level Miami Center
06:02PM 27.8394 -82.7053 97° East 410 472 23,000  Level Miami Center
06:03PM 27.8258 -82.5803 97° East 410 472 23,000 -60 Level Miami Center
06:04PM 27.8533 -82.4597 76° East 405 466 22,900 -840 Descending Miami Center
06:05PM 27.8850 -82.3439 73° East 393 452 21,400 -1,800 Descending Miami Center
06:06PM 27.9164 -82.2281 73° East 388 447 19,400 -2,100 Descending Miami Center
06:08PM 28.0000 -82.0000 67° East 361 415 15,200 -2,100 Descending Orlando TRACON
06:09PM 28.0333 -81.9167 66° East 350 403 13,400 -1,140 Descending Orlando TRACON
06:10PM 28.0833 -81.8167 60° Northeast 343 395 13,000 -540 Descending Orlando TRACON
06:11PM 28.1500 -81.7000 57° Northeast 341 392 12,300 -780 Descending Orlando TRACON
06:12PM 28.1833 -81.6333 60° Northeast 340 391 11,500 -1,080 Descending Orlando TRACON
06:13PM 28.2500 -81.5500 48° Northeast 340 391 10,400 -1,140 Descending Orlando TRACON
06:14PM 28.3000 -81.4667 56° Northeast 315 362 9,400 -720 Descending Orlando TRACON
06:15PM 28.3667 -81.4167 33° Northeast 277 319 9,000 -660 Descending Orlando TRACON
06:16PM 28.4333 -81.4167 360° North 239 275 8,100 -1,140 Descending Orlando TRACON
06:17PM 28.5000 -81.4167 360° North 236 272 6,800 -1,440 Descending Orlando TRACON
06:18PM 28.5500 -81.4167 360° North 241 277 5,400 -1,320 Descending Orlando TRACON
06:19PM 28.5667 -81.3333 77° East 235 270 4,200 -1,620 Descending Orlando TRACON
06:20PM 28.5500 -81.2833 111° Southeast 207 238 2,200 -1,440 Descending Orlando TRACON
06:21PM 28.4833 -81.2833 180° South 164 189 1,200 -960 Descending Orlando TRACON